createdAt,value
2023-06-10T00:00:27.473Z,3.30
2023-06-10T00:01:00.153Z,3.40
2023-06-10T00:01:32.829Z,3.60
2023-06-10T00:02:05.504Z,3.00
2023-06-10T00:02:38.203Z,3.20
2023-06-10T00:03:11.008Z,3.10
2023-06-10T00:03:43.850Z,3.20
2023-06-10T00:04:16.666Z,3.30
2023-06-10T00:04:49.514Z,3.50
2023-06-10T00:05:22.236Z,3.20
2023-06-10T00:05:54.897Z,3.10
2023-06-10T00:06:27.586Z,3.20
2023-06-10T00:07:00.272Z,3.50
2023-06-10T00:07:32.926Z,3.40
2023-06-10T00:08:05.604Z,3.40
2023-06-10T00:08:38.285Z,3.20
2023-06-10T00:09:10.955Z,3.00
2023-06-10T00:09:43.622Z,3.00
2023-06-10T00:10:16.292Z,3.00
2023-06-10T00:10:48.960Z,2.90
2023-06-10T00:11:21.650Z,3.10
2023-06-10T00:11:54.354Z,3.40
2023-06-10T00:12:27.010Z,3.30
2023-06-10T00:12:59.680Z,3.30
2023-06-10T00:13:32.375Z,3.60
2023-06-10T00:14:05.011Z,3.30
2023-06-10T00:14:37.676Z,3.30
2023-06-10T00:15:10.569Z,3.40
2023-06-10T00:15:36.910Z,3.20
2023-06-10T00:16:09.721Z,3.30
2023-06-10T00:16:42.627Z,3.00
2023-06-10T00:17:15.320Z,3.30
2023-06-10T00:17:47.984Z,3.20
2023-06-10T00:18:20.640Z,3.00
2023-06-10T00:18:53.309Z,3.10
2023-06-10T00:19:25.975Z,3.40
2023-06-10T00:19:58.651Z,3.40
2023-06-10T00:20:31.317Z,3.30
2023-06-10T00:21:03.976Z,3.20
2023-06-10T00:21:36.679Z,3.40
2023-06-10T00:22:09.339Z,3.30
2023-06-10T00:22:42.006Z,3.30
2023-06-10T00:23:14.669Z,3.20
2023-06-10T00:23:47.375Z,3.10
2023-06-10T00:24:20.127Z,3.60
2023-06-10T00:24:52.808Z,3.60
2023-06-10T00:25:25.472Z,3.30
2023-06-10T00:25:58.140Z,3.10
2023-06-10T00:26:30.830Z,3.10
2023-06-10T00:27:03.506Z,3.00
2023-06-10T00:27:36.298Z,3.00
2023-06-10T00:28:09.119Z,3.10
2023-06-10T00:28:41.780Z,3.10
2023-06-10T00:29:14.439Z,3.30
2023-06-10T00:29:47.102Z,3.40
2023-06-10T00:30:19.775Z,3.70
2023-06-10T00:30:52.448Z,3.30
2023-06-10T00:31:25.182Z,3.60
2023-06-10T00:31:57.925Z,3.50
2023-06-10T00:32:30.587Z,3.30
2023-06-10T00:33:03.297Z,3.50
2023-06-10T00:33:35.972Z,3.30
2023-06-10T00:34:08.641Z,3.50
2023-06-10T00:34:41.305Z,2.90
2023-06-10T00:35:13.978Z,3.00
2023-06-10T00:35:46.655Z,3.00
2023-06-10T00:36:19.358Z,3.10
2023-06-10T00:36:52.018Z,3.20
2023-06-10T00:37:24.678Z,3.30
2023-06-10T00:37:57.354Z,3.10
2023-06-10T00:38:30.050Z,3.30
2023-06-10T00:39:02.697Z,3.20
2023-06-10T00:39:35.378Z,3.30
2023-06-10T00:40:08.063Z,3.30
2023-06-10T00:40:40.709Z,3.40
2023-06-10T00:41:13.412Z,3.40
2023-06-10T00:41:46.070Z,3.30
2023-06-10T00:42:18.731Z,3.30
2023-06-10T00:42:51.431Z,3.30
2023-06-10T00:43:22.535Z,2.90
2023-06-10T00:43:55.227Z,3.10
2023-06-10T00:44:27.901Z,3.10
2023-06-10T00:45:00.545Z,3.30
2023-06-10T00:45:33.233Z,3.20
2023-06-10T00:46:05.984Z,3.40
2023-06-10T00:46:38.700Z,3.40
2023-06-10T00:47:11.335Z,3.30
2023-06-10T00:47:44.069Z,3.20
2023-06-10T00:48:16.743Z,3.10
2023-06-10T00:48:49.423Z,3.60
2023-06-10T00:49:22.102Z,3.60
2023-06-10T00:49:54.770Z,3.00
2023-06-10T00:50:27.453Z,3.40
2023-06-10T00:51:00.122Z,3.10
2023-06-10T00:51:32.788Z,3.30
2023-06-10T00:52:05.459Z,3.10
2023-06-10T00:52:38.141Z,3.20
2023-06-10T00:53:10.816Z,3.20
2023-06-10T00:53:43.501Z,3.20
2023-06-10T00:54:16.190Z,3.40
2023-06-10T00:54:48.850Z,2.90
2023-06-10T00:55:21.520Z,2.90
2023-06-10T00:55:54.189Z,3.50
2023-06-10T00:56:26.892Z,3.40
2023-06-10T00:56:59.555Z,3.40
2023-06-10T00:57:32.224Z,3.20
2023-06-10T00:58:04.930Z,3.40
2023-06-10T00:58:37.581Z,3.40
2023-06-10T00:59:04.495Z,3.30
2023-06-10T00:59:37.142Z,3.00
2023-06-10T01:00:09.972Z,3.40
2023-06-10T01:00:42.700Z,3.20
2023-06-10T01:01:15.500Z,3.40
2023-06-10T01:01:48.281Z,3.20
2023-06-10T01:02:21.118Z,3.00
2023-06-10T01:02:54.000Z,3.10
2023-06-10T01:03:27.011Z,3.40
2023-06-10T01:03:53.224Z,3.40
2023-06-10T01:04:25.911Z,3.30
2023-06-10T01:04:58.599Z,3.10
2023-06-10T01:05:31.245Z,3.30
2023-06-10T01:06:03.907Z,3.20
2023-06-10T01:06:36.599Z,3.30
2023-06-10T01:07:09.268Z,3.20
2023-06-10T01:07:41.931Z,3.40
2023-06-10T01:08:14.617Z,3.00
2023-06-10T01:08:47.277Z,3.90
2023-06-10T01:09:19.959Z,3.30
2023-06-10T01:09:52.620Z,3.00
2023-06-10T01:10:25.281Z,3.10
2023-06-10T01:10:57.945Z,3.30
2023-06-10T01:11:30.620Z,3.10
2023-06-10T01:12:03.295Z,3.20
2023-06-10T01:12:35.952Z,3.30
2023-06-10T01:13:08.617Z,3.40
2023-06-10T01:13:41.283Z,3.50
2023-06-10T01:14:13.987Z,3.50
2023-06-10T01:14:46.626Z,3.80
2023-06-10T01:15:19.311Z,3.30
2023-06-10T01:15:51.976Z,3.70
2023-06-10T01:16:24.679Z,3.30
2023-06-10T01:16:57.382Z,3.80
2023-06-10T01:17:30.072Z,3.30
2023-06-10T01:18:02.848Z,3.00
2023-06-10T01:18:35.633Z,3.10
2023-06-10T01:19:08.295Z,3.20
2023-06-10T01:19:40.964Z,3.50
2023-06-10T01:20:13.643Z,3.10
2023-06-10T01:20:46.311Z,3.20
2023-06-10T01:21:19.012Z,3.20
2023-06-10T01:21:51.684Z,3.00
2023-06-10T01:22:24.382Z,3.00
2023-06-10T01:22:51.152Z,3.00
2023-06-10T01:23:23.834Z,2.90
2023-06-10T01:23:56.513Z,3.40
2023-06-10T01:24:29.219Z,3.20
2023-06-10T01:25:01.872Z,3.20
2023-06-10T01:25:34.537Z,3.10
2023-06-10T01:26:07.216Z,3.50
2023-06-10T01:26:39.888Z,3.40
2023-06-10T01:27:12.569Z,3.20
2023-06-10T01:27:45.225Z,3.20
2023-06-10T01:28:17.898Z,3.20
2023-06-10T01:28:50.560Z,3.30
2023-06-10T01:29:23.334Z,2.80
2023-06-10T01:29:55.975Z,3.00
2023-06-10T01:30:28.640Z,3.50
2023-06-10T01:31:01.354Z,3.00
2023-06-10T01:31:34.120Z,3.10
2023-06-10T01:32:06.767Z,3.30
2023-06-10T01:32:39.490Z,3.20
2023-06-10T01:33:12.181Z,2.90
2023-06-10T01:33:44.851Z,3.00
2023-06-10T01:34:17.576Z,2.90
2023-06-10T01:34:50.269Z,3.10
2023-06-10T01:35:22.943Z,3.40
2023-06-10T01:35:55.868Z,3.60
2023-06-10T01:36:28.518Z,3.40
2023-06-10T01:37:01.193Z,3.20
2023-06-10T01:37:33.850Z,2.90
2023-06-10T01:38:06.578Z,3.00
2023-06-10T01:38:39.298Z,3.10
2023-06-10T01:39:11.993Z,3.40
2023-06-10T01:39:44.661Z,3.30
2023-06-10T01:40:17.335Z,3.40
2023-06-10T01:40:50.001Z,3.20
2023-06-10T01:41:22.698Z,3.60
2023-06-10T01:41:55.379Z,3.20
2023-06-10T01:42:28.044Z,2.90
2023-06-10T01:43:00.718Z,2.80
2023-06-10T01:43:33.377Z,3.00
2023-06-10T01:44:06.056Z,3.10
2023-06-10T01:44:38.736Z,3.20
2023-06-10T01:45:11.534Z,3.10
2023-06-10T01:45:44.316Z,3.30
2023-06-10T01:46:17.018Z,3.00
2023-06-10T01:46:49.859Z,3.20
2023-06-10T01:47:22.603Z,3.10
2023-06-10T01:47:55.282Z,3.20
2023-06-10T01:48:27.947Z,3.20
2023-06-10T01:49:00.624Z,3.10
2023-06-10T01:49:33.281Z,3.10
2023-06-10T01:50:05.959Z,3.00
2023-06-10T01:50:38.619Z,2.70
2023-06-10T01:51:11.299Z,3.60
2023-06-10T01:51:42.399Z,3.30
2023-06-10T01:52:15.073Z,3.00
2023-06-10T01:52:47.732Z,3.40
2023-06-10T01:53:20.406Z,3.60
2023-06-10T01:53:53.076Z,3.00
2023-06-10T01:54:25.748Z,3.00
2023-06-10T01:54:58.425Z,3.30
2023-06-10T01:55:31.103Z,3.00
2023-06-10T01:56:03.781Z,3.40
2023-06-10T01:56:36.459Z,3.20
2023-06-10T01:57:09.124Z,3.20
2023-06-10T01:57:41.790Z,2.90
2023-06-10T01:58:14.480Z,3.10
2023-06-10T01:58:47.161Z,3.00
2023-06-10T01:59:19.851Z,3.20
2023-06-10T01:59:52.545Z,3.10
2023-06-10T02:00:25.223Z,3.60
2023-06-10T02:00:57.957Z,3.20
2023-06-10T02:01:30.716Z,3.20
2023-06-10T02:02:03.385Z,3.40
2023-06-10T02:02:36.118Z,3.20
2023-06-10T02:03:08.899Z,3.40
2023-06-10T02:03:41.649Z,3.40
2023-06-10T02:04:14.315Z,3.50
2023-06-10T02:04:46.987Z,3.00
2023-06-10T02:05:19.655Z,2.80
2023-06-10T02:05:52.323Z,3.10
2023-06-10T02:06:25.026Z,3.10
2023-06-10T02:06:57.712Z,3.30
2023-06-10T02:07:30.401Z,3.40
2023-06-10T02:08:01.484Z,3.20
2023-06-10T02:08:34.164Z,3.40
2023-06-10T02:09:06.834Z,3.40
2023-06-10T02:09:39.515Z,3.10
2023-06-10T02:10:12.207Z,3.30
2023-06-10T02:10:44.892Z,3.50
2023-06-10T02:11:17.584Z,3.50
2023-06-10T02:11:50.244Z,3.20
2023-06-10T02:12:22.970Z,3.50
2023-06-10T02:12:55.602Z,3.60
2023-06-10T02:13:28.268Z,3.30
2023-06-10T02:14:00.945Z,3.50
2023-06-10T02:14:33.620Z,3.20
2023-06-10T02:15:06.611Z,3.30
2023-06-10T02:15:32.858Z,3.30
2023-06-10T02:16:05.551Z,3.20
2023-06-10T02:16:38.275Z,3.30
2023-06-10T02:17:10.931Z,3.10
2023-06-10T02:17:43.660Z,3.30
2023-06-10T02:18:16.299Z,3.00
2023-06-10T02:18:48.979Z,3.30
2023-06-10T02:19:21.677Z,3.20
2023-06-10T02:19:54.347Z,3.30
2023-06-10T02:20:27.005Z,3.10
2023-06-10T02:20:59.670Z,3.00
2023-06-10T02:21:32.360Z,3.00
2023-06-10T02:22:05.032Z,3.40
2023-06-10T02:22:37.698Z,2.90
2023-06-10T02:23:10.368Z,3.20
2023-06-10T02:23:43.086Z,3.30
2023-06-10T02:24:15.983Z,3.30
2023-06-10T02:24:48.744Z,3.20
2023-06-10T02:25:21.428Z,3.40
2023-06-10T02:25:54.100Z,3.60
2023-06-10T02:26:26.797Z,3.40
2023-06-10T02:26:59.456Z,3.50
2023-06-10T02:27:32.130Z,3.60
2023-06-10T02:28:04.789Z,3.20
2023-06-10T02:28:37.457Z,3.30
2023-06-10T02:29:10.108Z,3.20
2023-06-10T02:29:42.787Z,3.50
2023-06-10T02:30:15.483Z,3.70
2023-06-10T02:30:48.121Z,3.80
2023-06-10T02:31:20.900Z,3.40
2023-06-10T02:31:53.635Z,3.50
2023-06-10T02:32:26.520Z,3.20
2023-06-10T02:32:59.243Z,3.20
2023-06-10T02:33:31.879Z,3.30
2023-06-10T02:34:04.546Z,3.50
2023-06-10T02:34:37.220Z,3.20
2023-06-10T02:35:10.152Z,3.50
2023-06-10T02:35:36.509Z,3.30
2023-06-10T02:36:09.195Z,3.50
2023-06-10T02:36:41.896Z,3.50
2023-06-10T02:37:14.562Z,3.10
2023-06-10T02:37:47.238Z,3.50
2023-06-10T02:38:19.919Z,3.30
2023-06-10T02:38:52.588Z,3.60
2023-06-10T02:39:25.257Z,3.20
2023-06-10T02:39:57.927Z,3.50
2023-06-10T02:40:30.596Z,3.20
2023-06-10T02:41:03.273Z,3.20
2023-06-10T02:41:35.964Z,3.10
2023-06-10T02:42:08.610Z,3.50
2023-06-10T02:42:41.286Z,3.60
2023-06-10T02:43:12.368Z,3.20
2023-06-10T02:43:45.033Z,3.40
2023-06-10T02:44:17.709Z,3.40
2023-06-10T02:44:50.378Z,3.20
2023-06-10T02:45:23.065Z,3.50
2023-06-10T02:45:55.819Z,3.70
2023-06-10T02:46:28.602Z,3.60
2023-06-10T02:47:01.282Z,3.70
2023-06-10T02:47:33.986Z,3.70
2023-06-10T02:48:06.686Z,3.40
2023-06-10T02:48:39.340Z,3.60
2023-06-10T02:49:12.043Z,3.60
2023-06-10T02:49:44.731Z,3.50
2023-06-10T02:50:17.378Z,3.50
2023-06-10T02:50:50.043Z,3.40
2023-06-10T02:51:22.730Z,3.50
2023-06-10T02:51:55.420Z,3.30
2023-06-10T02:52:28.085Z,3.20
2023-06-10T02:53:00.799Z,3.10
2023-06-10T02:53:33.483Z,3.50
2023-06-10T02:54:06.164Z,3.50
2023-06-10T02:54:38.833Z,3.30
2023-06-10T02:55:11.773Z,3.70
2023-06-10T02:55:38.082Z,3.30
2023-06-10T02:56:10.755Z,3.50
2023-06-10T02:56:43.448Z,3.70
2023-06-10T02:57:16.125Z,3.60
2023-06-10T02:57:48.804Z,3.90
2023-06-10T02:58:21.478Z,3.40
2023-06-10T02:58:54.138Z,3.40
2023-06-10T02:59:26.811Z,3.70
2023-06-10T02:59:59.469Z,3.80
2023-06-10T03:00:32.187Z,3.60
2023-06-10T03:01:04.894Z,3.80
2023-06-10T03:01:37.646Z,3.60
2023-06-10T03:02:10.289Z,3.70
2023-06-10T03:02:42.995Z,3.70
2023-06-10T03:03:15.665Z,3.50
2023-06-10T03:03:48.369Z,3.80
2023-06-10T03:04:21.143Z,3.50
2023-06-10T03:04:53.872Z,3.20
2023-06-10T03:05:26.550Z,4.00
2023-06-10T03:05:59.210Z,3.70
2023-06-10T03:06:31.892Z,4.10
2023-06-10T03:07:04.586Z,3.70
2023-06-10T03:07:35.656Z,4.00
2023-06-10T03:08:08.334Z,3.80
2023-06-10T03:08:41.000Z,3.80
2023-06-10T03:09:13.670Z,3.60
2023-06-10T03:09:46.339Z,3.40
2023-06-10T03:10:19.011Z,3.60
2023-06-10T03:10:51.679Z,3.60
2023-06-10T03:11:24.370Z,3.80
2023-06-10T03:11:57.072Z,3.60
2023-06-10T03:12:29.723Z,3.70
2023-06-10T03:13:02.397Z,3.60
2023-06-10T03:13:35.073Z,3.50
2023-06-10T03:14:07.734Z,3.80
2023-06-10T03:14:40.411Z,3.80
2023-06-10T03:15:13.278Z,3.80
2023-06-10T03:15:46.041Z,3.60
2023-06-10T03:16:18.775Z,3.50
2023-06-10T03:16:51.494Z,3.60
2023-06-10T03:17:24.181Z,3.40
2023-06-10T03:17:56.960Z,3.70
2023-06-10T03:18:29.726Z,3.80
2023-06-10T03:19:02.423Z,3.60
2023-06-10T03:19:35.079Z,3.50
2023-06-10T03:20:07.758Z,3.80
2023-06-10T03:20:40.417Z,3.70
2023-06-10T03:21:13.095Z,3.60
2023-06-10T03:21:45.758Z,3.90
2023-06-10T03:22:18.428Z,3.70
2023-06-10T03:22:51.093Z,3.90
2023-06-10T03:23:23.769Z,3.70
2023-06-10T03:23:56.494Z,3.90
2023-06-10T03:24:29.138Z,4.10
2023-06-10T03:25:01.812Z,3.80
2023-06-10T03:25:32.905Z,3.90
2023-06-10T03:26:05.574Z,3.70
2023-06-10T03:26:38.267Z,4.10
2023-06-10T03:27:09.360Z,3.90
2023-06-10T03:27:42.031Z,3.50
2023-06-10T03:28:14.692Z,3.80
2023-06-10T03:28:47.381Z,3.30
2023-06-10T03:29:20.040Z,3.70
2023-06-10T03:29:52.710Z,3.70
2023-06-10T03:30:25.391Z,3.70
2023-06-10T03:30:58.082Z,3.50
2023-06-10T03:31:30.782Z,3.90
2023-06-10T03:32:03.477Z,4.00
2023-06-10T03:32:36.160Z,4.00
2023-06-10T03:33:08.868Z,3.90
2023-06-10T03:33:41.520Z,3.80
2023-06-10T03:34:14.191Z,3.70
2023-06-10T03:34:46.881Z,3.90
2023-06-10T03:35:19.539Z,3.80
2023-06-10T03:35:52.222Z,4.30
2023-06-10T03:36:24.904Z,3.60
2023-06-10T03:36:57.601Z,3.80
2023-06-10T03:37:30.263Z,3.70
2023-06-10T03:38:02.930Z,3.90
2023-06-10T03:38:35.608Z,3.70
2023-06-10T03:39:08.282Z,4.10
2023-06-10T03:39:40.961Z,3.90
2023-06-10T03:40:13.633Z,4.00
2023-06-10T03:40:46.292Z,3.80
2023-06-10T03:41:18.966Z,4.10
2023-06-10T03:41:51.646Z,4.00
2023-06-10T03:42:24.315Z,3.90
2023-06-10T03:42:56.985Z,4.10
2023-06-10T03:43:29.660Z,3.80
2023-06-10T03:44:02.335Z,4.00
2023-06-10T03:44:34.999Z,4.30
2023-06-10T03:45:08.129Z,4.20
2023-06-10T03:45:34.776Z,4.20
2023-06-10T03:46:07.517Z,4.40
2023-06-10T03:46:40.206Z,3.80
2023-06-10T03:47:12.869Z,4.00
2023-06-10T03:47:45.595Z,3.80
2023-06-10T03:48:18.262Z,3.20
2023-06-10T03:48:50.926Z,3.80
2023-06-10T03:49:23.586Z,3.80
2023-06-10T03:49:56.268Z,4.20
2023-06-10T03:50:28.970Z,4.30
2023-06-10T03:51:01.631Z,3.90
2023-06-10T03:51:34.309Z,3.80
2023-06-10T03:52:06.985Z,4.20
2023-06-10T03:52:39.665Z,3.80
2023-06-10T03:53:12.331Z,3.90
2023-06-10T03:53:45.014Z,4.10
2023-06-10T03:54:17.696Z,4.10
2023-06-10T03:54:50.354Z,3.60
2023-06-10T03:55:23.020Z,3.90
2023-06-10T03:55:55.684Z,4.00
2023-06-10T03:56:28.376Z,3.90
2023-06-10T03:57:01.051Z,4.20
2023-06-10T03:57:33.714Z,4.20
2023-06-10T03:58:06.410Z,3.80
2023-06-10T03:58:39.075Z,3.70
2023-06-10T03:59:11.724Z,3.90
2023-06-10T03:59:44.385Z,4.10
2023-06-10T04:00:17.058Z,3.70
2023-06-10T04:00:49.725Z,3.80
2023-06-10T04:01:20.855Z,4.10
2023-06-10T04:01:53.548Z,4.20
2023-06-10T04:02:26.303Z,3.90
2023-06-10T04:02:59.211Z,4.00
2023-06-10T04:03:25.592Z,3.90
2023-06-10T04:03:58.237Z,3.90
2023-06-10T04:04:30.898Z,4.50
2023-06-10T04:05:03.588Z,3.90
2023-06-10T04:05:36.274Z,4.00
2023-06-10T04:06:08.977Z,4.00
2023-06-10T04:06:41.673Z,4.00
2023-06-10T04:07:14.333Z,3.50
2023-06-10T04:07:47.125Z,4.10
2023-06-10T04:08:19.800Z,3.90
2023-06-10T04:08:52.470Z,3.90
2023-06-10T04:09:25.141Z,4.20
2023-06-10T04:09:57.830Z,4.10
2023-06-10T04:10:30.497Z,4.10
2023-06-10T04:11:03.164Z,3.80
2023-06-10T04:11:35.845Z,4.40
2023-06-10T04:12:08.534Z,4.20
2023-06-10T04:12:41.198Z,4.10
2023-06-10T04:13:13.867Z,3.60
2023-06-10T04:13:46.548Z,3.80
2023-06-10T04:14:19.220Z,4.20
2023-06-10T04:14:51.887Z,4.00
2023-06-10T04:15:24.577Z,4.00
2023-06-10T04:15:57.243Z,4.00
2023-06-10T04:16:29.942Z,4.20
2023-06-10T04:17:02.626Z,4.00
2023-06-10T04:17:35.344Z,4.20
2023-06-10T04:18:08.038Z,4.30
2023-06-10T04:18:40.723Z,4.50
2023-06-10T04:19:13.421Z,4.00
2023-06-10T04:19:46.091Z,4.20
2023-06-10T04:20:18.768Z,4.30
2023-06-10T04:20:51.432Z,3.90
2023-06-10T04:21:24.156Z,4.00
2023-06-10T04:21:56.816Z,4.30
2023-06-10T04:22:29.508Z,4.40
2023-06-10T04:23:02.207Z,4.60
2023-06-10T04:23:34.857Z,4.30
2023-06-10T04:24:07.584Z,4.30
2023-06-10T04:24:40.273Z,4.50
2023-06-10T04:25:12.977Z,4.30
2023-06-10T04:25:45.638Z,4.40
2023-06-10T04:26:18.333Z,4.40
2023-06-10T04:26:50.994Z,4.20
2023-06-10T04:27:23.672Z,4.30
2023-06-10T04:27:56.337Z,4.40
2023-06-10T04:28:29.014Z,4.10
2023-06-10T04:29:01.703Z,4.50
2023-06-10T04:29:34.355Z,4.10
2023-06-10T04:30:07.076Z,4.40
2023-06-10T04:30:39.735Z,4.30
2023-06-10T04:31:12.418Z,4.40
2023-06-10T04:31:45.132Z,4.40
2023-06-10T04:32:17.791Z,4.60
2023-06-10T04:32:50.544Z,4.30
2023-06-10T04:33:23.206Z,3.90
2023-06-10T04:33:55.884Z,4.00
2023-06-10T04:34:28.567Z,3.90
2023-06-10T04:35:01.258Z,4.30
2023-06-10T04:35:33.902Z,4.20
2023-06-10T04:36:06.567Z,4.50
2023-06-10T04:36:39.246Z,4.30
2023-06-10T04:37:11.913Z,4.30
2023-06-10T04:37:44.570Z,4.30
2023-06-10T04:38:17.254Z,4.20
2023-06-10T04:38:49.918Z,4.00
2023-06-10T04:39:22.579Z,4.20
2023-06-10T04:39:55.255Z,4.30
2023-06-10T04:40:27.922Z,4.40
2023-06-10T04:41:00.641Z,4.50
2023-06-10T04:41:33.323Z,4.10
2023-06-10T04:42:06.060Z,3.90
2023-06-10T04:42:38.744Z,4.00
2023-06-10T04:43:11.416Z,4.30
2023-06-10T04:43:44.068Z,4.20
2023-06-10T04:44:16.743Z,3.60
2023-06-10T04:44:49.411Z,4.40
2023-06-10T04:45:22.094Z,4.10
2023-06-10T04:45:54.770Z,4.20
2023-06-10T04:46:27.487Z,4.30
2023-06-10T04:47:00.289Z,4.30
2023-06-10T04:47:33.079Z,4.40
2023-06-10T04:48:05.743Z,4.50
2023-06-10T04:48:38.452Z,3.70
2023-06-10T04:49:11.124Z,3.90
2023-06-10T04:49:43.787Z,4.20
2023-06-10T04:50:16.460Z,4.30
2023-06-10T04:50:49.124Z,4.50
2023-06-10T04:51:21.818Z,4.20
2023-06-10T04:51:54.488Z,4.40
2023-06-10T04:52:27.155Z,4.20
2023-06-10T04:52:59.816Z,4.40
2023-06-10T04:53:32.485Z,4.30
2023-06-10T04:54:05.303Z,4.40
2023-06-10T04:54:37.983Z,4.40
2023-06-10T04:55:11.036Z,4.50
2023-06-10T04:55:37.383Z,4.60
2023-06-10T04:56:10.058Z,4.70
2023-06-10T04:56:42.720Z,4.70
2023-06-10T04:57:15.397Z,4.60
2023-06-10T04:57:49.127Z,4.30
2023-06-10T04:58:17.169Z,4.50
2023-06-10T04:58:49.854Z,4.30
2023-06-10T04:59:22.545Z,4.50
2023-06-10T04:59:55.206Z,4.50
2023-06-10T05:00:27.890Z,4.30
2023-06-10T05:01:00.607Z,4.40
2023-06-10T05:01:33.328Z,4.80
2023-06-10T05:02:06.058Z,4.70
2023-06-10T05:02:38.754Z,4.60
2023-06-10T05:03:11.554Z,4.50
2023-06-10T05:03:44.273Z,4.70
2023-06-10T05:04:16.948Z,4.50
2023-06-10T05:04:49.640Z,4.70
2023-06-10T05:05:22.305Z,4.40
2023-06-10T05:05:54.976Z,4.40
2023-06-10T05:06:27.658Z,4.40
2023-06-10T05:07:00.325Z,4.40
2023-06-10T05:07:32.992Z,4.50
2023-06-10T05:08:08.552Z,4.50
2023-06-10T05:08:34.973Z,4.30
2023-06-10T05:09:07.620Z,4.30
2023-06-10T05:09:40.277Z,4.50
2023-06-10T05:10:12.949Z,4.50
2023-06-10T05:10:45.618Z,4.70
2023-06-10T05:11:18.304Z,4.40
2023-06-10T05:11:50.982Z,4.60
2023-06-10T05:12:23.663Z,4.60
2023-06-10T05:12:56.322Z,4.20
2023-06-10T05:13:29.004Z,4.40
2023-06-10T05:14:01.672Z,4.80
2023-06-10T05:14:34.339Z,4.20
2023-06-10T05:15:07.287Z,4.30
2023-06-10T05:15:33.565Z,4.80
2023-06-10T05:16:06.281Z,4.30
2023-06-10T05:16:39.006Z,4.60
2023-06-10T05:17:11.683Z,4.30
2023-06-10T05:17:44.385Z,4.80
2023-06-10T05:18:17.088Z,4.40
2023-06-10T05:18:49.762Z,4.50
2023-06-10T05:19:22.444Z,4.60
2023-06-10T05:19:55.103Z,4.10
2023-06-10T05:20:27.906Z,4.70
2023-06-10T05:21:00.560Z,4.90
2023-06-10T05:21:33.243Z,4.20
2023-06-10T05:22:05.925Z,4.40
2023-06-10T05:22:38.597Z,4.60
2023-06-10T05:23:11.268Z,4.30
2023-06-10T05:23:43.964Z,4.50
2023-06-10T05:24:16.686Z,4.50
2023-06-10T05:24:49.409Z,4.50
2023-06-10T05:25:22.083Z,4.40
2023-06-10T05:25:54.759Z,4.40
2023-06-10T05:26:27.422Z,4.60
2023-06-10T05:27:00.110Z,4.30
2023-06-10T05:27:32.755Z,4.30
2023-06-10T05:28:05.427Z,4.60
2023-06-10T05:28:38.099Z,4.60
2023-06-10T05:29:10.765Z,4.20
2023-06-10T05:29:43.567Z,4.40
2023-06-10T05:30:16.244Z,4.50
2023-06-10T05:30:48.903Z,4.40
2023-06-10T05:31:21.625Z,4.50
2023-06-10T05:31:54.350Z,4.50
2023-06-10T05:32:27.050Z,4.70
2023-06-10T05:32:59.730Z,4.30
2023-06-10T05:33:32.401Z,4.40
2023-06-10T05:34:05.080Z,4.40
2023-06-10T05:34:37.744Z,4.40
2023-06-10T05:35:10.743Z,4.20
2023-06-10T05:35:37.134Z,4.10
2023-06-10T05:36:09.828Z,4.30
2023-06-10T05:36:42.486Z,4.40
2023-06-10T05:37:15.176Z,4.50
2023-06-10T05:37:47.841Z,4.50
2023-06-10T05:38:20.526Z,4.30
2023-06-10T05:38:53.207Z,3.80
2023-06-10T05:39:25.881Z,3.90
2023-06-10T05:39:58.552Z,4.00
2023-06-10T05:40:25.208Z,4.10
2023-06-10T05:40:57.974Z,4.20
2023-06-10T05:41:30.692Z,4.40
2023-06-10T05:42:03.356Z,4.30
2023-06-10T05:42:36.065Z,4.30
2023-06-10T05:43:08.731Z,4.90
2023-06-10T05:43:41.392Z,4.20
2023-06-10T05:44:14.399Z,4.20
2023-06-10T05:44:40.758Z,4.70
2023-06-10T05:45:13.426Z,4.60
2023-06-10T05:45:46.133Z,4.60
2023-06-10T05:46:18.893Z,4.20
2023-06-10T05:46:51.581Z,4.40
2023-06-10T05:47:24.279Z,4.40
2023-06-10T05:47:57.047Z,4.40
2023-06-10T05:48:29.738Z,4.40
2023-06-10T05:49:02.446Z,4.50
2023-06-10T05:49:35.081Z,4.60
2023-06-10T05:50:07.752Z,4.30
2023-06-10T05:50:40.423Z,4.10
2023-06-10T05:51:13.109Z,4.40
2023-06-10T05:51:45.773Z,4.40
2023-06-10T05:52:18.445Z,4.40
2023-06-10T05:52:51.126Z,4.20
2023-06-10T05:53:23.816Z,4.50
2023-06-10T05:53:56.483Z,4.30
2023-06-10T05:54:30.337Z,4.20
2023-06-10T05:54:56.659Z,4.50
2023-06-10T05:55:29.338Z,4.40
2023-06-10T05:56:01.996Z,4.30
2023-06-10T05:56:34.707Z,4.20
2023-06-10T05:57:07.378Z,4.40
2023-06-10T05:57:40.115Z,4.50
2023-06-10T05:58:11.155Z,4.40
2023-06-10T05:58:43.817Z,4.40
2023-06-10T05:59:16.499Z,4.20
2023-06-10T05:59:49.181Z,4.70
2023-06-10T06:00:21.849Z,4.40
2023-06-10T06:00:54.552Z,4.20
2023-06-10T06:01:27.388Z,4.50
2023-06-10T06:02:00.167Z,4.70
2023-06-10T06:02:32.969Z,4.30
2023-06-10T06:03:05.720Z,4.40
2023-06-10T06:03:38.617Z,4.70
2023-06-10T06:04:11.411Z,4.50
2023-06-10T06:04:44.123Z,4.50
2023-06-10T06:05:16.866Z,4.60
2023-06-10T06:05:49.581Z,4.80
2023-06-10T06:06:22.271Z,4.60
2023-06-10T06:06:54.944Z,4.20
2023-06-10T06:07:27.615Z,4.60
2023-06-10T06:08:00.267Z,4.10
2023-06-10T06:08:32.934Z,4.40
2023-06-10T06:09:05.603Z,4.50
2023-06-10T06:09:38.288Z,4.70
2023-06-10T06:10:10.973Z,4.30
2023-06-10T06:10:43.643Z,4.60
2023-06-10T06:11:16.330Z,4.20
2023-06-10T06:11:48.993Z,4.30
2023-06-10T06:12:21.785Z,4.20
2023-06-10T06:12:54.479Z,4.60
2023-06-10T06:13:27.134Z,4.20
2023-06-10T06:13:59.801Z,4.70
2023-06-10T06:14:32.469Z,4.50
2023-06-10T06:15:05.139Z,4.40
2023-06-10T06:15:37.905Z,4.20
2023-06-10T06:16:10.652Z,4.10
2023-06-10T06:16:43.366Z,4.50
2023-06-10T06:17:16.067Z,4.50
2023-06-10T06:17:48.762Z,4.50
2023-06-10T06:18:21.423Z,4.90
2023-06-10T06:18:54.088Z,4.30
2023-06-10T06:19:26.763Z,4.50
2023-06-10T06:19:59.435Z,4.60
2023-06-10T06:20:32.128Z,4.20
2023-06-10T06:21:04.761Z,4.50
2023-06-10T06:21:37.440Z,4.30
2023-06-10T06:22:10.112Z,4.20
2023-06-10T06:22:42.777Z,4.40
2023-06-10T06:23:09.658Z,4.70
2023-06-10T06:23:42.352Z,4.40
2023-06-10T06:24:15.151Z,4.20
2023-06-10T06:24:47.896Z,4.30
2023-06-10T06:25:20.699Z,4.40
2023-06-10T06:25:53.361Z,4.20
2023-06-10T06:26:26.057Z,4.10
2023-06-10T06:26:58.720Z,4.40
2023-06-10T06:27:31.376Z,4.60
2023-06-10T06:28:04.071Z,4.20
2023-06-10T06:28:36.734Z,4.70
2023-06-10T06:29:09.407Z,4.40
2023-06-10T06:29:42.069Z,4.40
2023-06-10T06:30:08.721Z,4.20
2023-06-10T06:30:41.381Z,4.40
2023-06-10T06:31:14.074Z,4.30
2023-06-10T06:31:46.778Z,4.40
2023-06-10T06:32:19.452Z,4.50
2023-06-10T06:32:52.244Z,4.60
2023-06-10T06:33:24.922Z,4.40
2023-06-10T06:33:57.759Z,4.40
2023-06-10T06:34:30.433Z,4.40
2023-06-10T06:35:03.112Z,4.60
2023-06-10T06:35:35.766Z,4.50
2023-06-10T06:36:08.438Z,4.40
2023-06-10T06:36:41.138Z,4.50
2023-06-10T06:37:13.796Z,4.60
2023-06-10T06:37:46.462Z,4.70
2023-06-10T06:38:19.126Z,4.30
2023-06-10T06:38:51.799Z,4.80
2023-06-10T06:39:24.456Z,4.30
2023-06-10T06:39:57.132Z,4.30
2023-06-10T06:40:29.807Z,4.20
2023-06-10T06:41:02.471Z,4.60
2023-06-10T06:41:35.167Z,4.70
2023-06-10T06:42:07.827Z,4.50
2023-06-10T06:42:40.497Z,4.60
2023-06-10T06:43:13.183Z,4.40
2023-06-10T06:43:45.877Z,4.40
2023-06-10T06:44:12.710Z,4.30
2023-06-10T06:44:45.380Z,4.50
2023-06-10T06:45:18.054Z,4.60
2023-06-10T06:45:50.801Z,4.30
2023-06-10T06:46:23.502Z,4.20
2023-06-10T06:46:56.160Z,4.30
2023-06-10T06:47:28.947Z,4.50
2023-06-10T06:48:01.678Z,4.60
2023-06-10T06:48:34.447Z,4.50
2023-06-10T06:49:07.118Z,4.10
2023-06-10T06:49:39.793Z,4.20
2023-06-10T06:50:12.464Z,4.40
2023-06-10T06:50:45.145Z,4.30
2023-06-10T06:51:17.853Z,4.60
2023-06-10T06:51:50.551Z,4.00
2023-06-10T06:52:23.222Z,4.70
2023-06-10T06:52:55.887Z,4.60
2023-06-10T06:53:31.696Z,4.20
2023-06-10T06:53:59.701Z,4.50
2023-06-10T06:54:32.375Z,4.30
2023-06-10T06:55:05.037Z,4.50
2023-06-10T06:55:37.725Z,4.30
2023-06-10T06:56:10.398Z,4.70
2023-06-10T06:56:43.079Z,4.40
2023-06-10T06:57:15.766Z,4.50
2023-06-10T06:57:48.426Z,4.60
2023-06-10T06:58:21.106Z,4.30
2023-06-10T06:58:55.518Z,4.80
2023-06-10T06:59:23.162Z,4.90
2023-06-10T06:59:55.833Z,4.70
2023-06-10T07:00:28.495Z,4.40
2023-06-10T07:01:01.170Z,4.30
2023-06-10T07:01:33.981Z,4.60
2023-06-10T07:02:06.693Z,4.70
2023-06-10T07:02:39.438Z,4.60
2023-06-10T07:03:12.190Z,4.50
2023-06-10T07:03:44.884Z,4.60
2023-06-10T07:04:17.648Z,4.60
2023-06-10T07:04:50.367Z,4.10
2023-06-10T07:05:23.067Z,4.20
2023-06-10T07:05:54.134Z,4.40
2023-06-10T07:06:26.822Z,4.50
2023-06-10T07:06:59.490Z,4.80
2023-06-10T07:07:32.165Z,4.60
2023-06-10T07:08:04.832Z,4.60
2023-06-10T07:08:37.516Z,4.80
2023-06-10T07:09:10.197Z,4.50
2023-06-10T07:09:42.869Z,4.50
2023-06-10T07:10:15.554Z,4.60
2023-06-10T07:10:48.214Z,4.60
2023-06-10T07:11:20.898Z,4.40
2023-06-10T07:11:53.583Z,4.70
2023-06-10T07:12:26.248Z,4.10
2023-06-10T07:12:58.924Z,4.10